createdAt,value
2023-05-13T00:00:01.586Z,12.54
2023-05-13T00:03:06.862Z,12.65
2023-05-13T00:06:09.230Z,12.78
2023-05-13T00:09:11.814Z,12.79
2023-05-13T00:12:14.194Z,12.74
2023-05-13T00:15:17.768Z,12.76
2023-05-13T00:18:22.466Z,12.67
2023-05-13T00:21:24.769Z,12.82
2023-05-13T00:24:27.737Z,12.84
2023-05-13T00:27:30.121Z,12.71
2023-05-13T00:30:34.014Z,12.89
2023-05-13T00:33:36.408Z,12.86
2023-05-13T00:36:38.712Z,12.85
2023-05-13T00:39:42.134Z,12.78
2023-05-13T00:42:46.468Z,12.98
2023-05-13T00:45:48.880Z,12.82
2023-05-13T00:48:52.226Z,12.61
2023-05-13T00:51:55.405Z,12.63
2023-05-13T00:54:58.522Z,12.65
2023-05-13T00:58:01.047Z,12.58
2023-05-13T01:01:15.626Z,12.73
2023-05-13T01:04:40.800Z,12.55
2023-05-13T01:08:25.559Z,12.52
2023-05-13T01:11:29.383Z,12.57
2023-05-13T01:14:34.165Z,12.55
2023-05-13T01:17:42.971Z,12.60
2023-05-13T01:20:46.090Z,12.56
2023-05-13T01:23:48.587Z,12.31
2023-05-13T01:26:50.979Z,12.38
2023-05-13T01:29:54.485Z,12.48
2023-05-13T01:33:01.284Z,12.52
2023-05-13T01:36:03.891Z,12.51
2023-05-13T01:39:07.700Z,12.72
2023-05-13T01:42:10.191Z,12.66
2023-05-13T01:45:13.023Z,12.47
2023-05-13T01:48:15.567Z,12.45
2023-05-13T01:51:24.719Z,12.52
2023-05-13T01:54:27.715Z,12.65
2023-05-13T01:57:35.049Z,12.63
2023-05-13T02:00:37.800Z,12.64
2023-05-13T02:03:40.184Z,12.58
2023-05-13T02:06:42.689Z,12.61
2023-05-13T02:09:45.373Z,12.52
2023-05-13T02:12:48.029Z,12.40
2023-05-13T02:15:50.333Z,12.64
2023-05-13T02:18:52.701Z,12.46
2023-05-13T02:22:02.561Z,12.50
2023-05-13T02:25:05.140Z,12.40
2023-05-13T02:28:07.565Z,12.21
2023-05-13T02:31:11.793Z,12.18
2023-05-13T02:34:14.095Z,12.18
2023-05-13T02:37:16.435Z,12.33
2023-05-13T02:40:27.058Z,12.32
2023-05-13T02:43:31.275Z,12.37
2023-05-13T02:46:40.282Z,12.42
2023-05-13T02:49:43.801Z,12.55
2023-05-13T02:52:47.681Z,12.30
2023-05-13T02:55:50.414Z,12.07
2023-05-13T02:58:52.736Z,12.23
2023-05-13T03:01:55.200Z,12.17
2023-05-13T03:04:57.585Z,12.29
2023-05-13T03:07:59.866Z,12.20
2023-05-13T03:11:02.669Z,12.18
2023-05-13T03:14:04.953Z,12.30
2023-05-13T03:17:07.331Z,12.13
2023-05-13T03:20:11.251Z,12.31
2023-05-13T03:23:13.774Z,12.25
2023-05-13T03:26:18.064Z,12.21
2023-05-13T03:29:20.652Z,12.20
2023-05-13T03:35:43.106Z,12.44
2023-05-13T03:38:45.833Z,12.35
2023-05-13T03:41:48.639Z,12.25
2023-05-13T03:44:51.364Z,12.46
2023-05-13T03:47:54.818Z,12.35
2023-05-13T03:51:01.848Z,12.37
2023-05-13T03:54:04.896Z,12.23
2023-05-13T03:57:10.167Z,12.34
2023-05-13T04:00:15.005Z,12.37
2023-05-13T04:03:18.272Z,12.46
2023-05-13T04:06:21.806Z,12.38
2023-05-13T04:09:25.500Z,12.23
2023-05-13T04:12:27.793Z,12.35
2023-05-13T04:15:31.801Z,12.19
2023-05-13T04:18:35.977Z,12.23
2023-05-13T04:21:38.350Z,12.18
2023-05-13T04:24:41.527Z,12.21
2023-05-13T04:27:45.076Z,12.34
2023-05-13T04:30:54.777Z,12.30
2023-05-13T04:33:57.812Z,12.45
2023-05-13T04:37:01.008Z,12.58
2023-05-13T04:40:03.824Z,12.64
2023-05-13T04:43:06.273Z,12.52
2023-05-13T04:46:15.521Z,12.61
2023-05-13T04:49:18.251Z,12.58
2023-05-13T04:52:21.258Z,12.52
2023-05-13T04:55:25.999Z,12.54
2023-05-13T04:58:33.436Z,12.50
2023-05-13T05:01:35.987Z,12.56
2023-05-13T05:04:38.375Z,12.66
2023-05-13T05:07:46.711Z,12.52
2023-05-13T05:10:49.984Z,12.77
2023-05-13T05:13:52.423Z,12.62
2023-05-13T05:16:54.900Z,12.69
2023-05-13T05:19:57.274Z,12.44
2023-05-13T05:22:59.807Z,12.52
2023-05-13T05:26:11.176Z,12.44
2023-05-13T05:29:15.493Z,12.56
2023-05-13T05:32:19.958Z,12.62
2023-05-13T05:35:22.567Z,12.48
2023-05-13T05:38:25.868Z,12.40
2023-05-13T05:41:32.920Z,12.31
2023-05-13T05:44:35.400Z,12.32
2023-05-13T05:47:38.728Z,12.30
2023-05-13T05:50:41.286Z,12.27
2023-05-13T05:53:45.828Z,12.29
2023-05-13T05:56:50.878Z,12.33
2023-05-13T05:59:53.161Z,12.37
2023-05-13T06:02:57.269Z,12.36
2023-05-13T06:05:59.939Z,12.41
2023-05-13T06:09:02.456Z,12.45
2023-05-13T06:12:05.199Z,12.45
2023-05-13T06:15:10.931Z,12.42
2023-05-13T06:18:13.507Z,12.51
2023-05-13T06:21:15.830Z,12.58
2023-05-13T06:24:18.121Z,12.36
2023-05-13T06:27:22.256Z,12.33
2023-05-13T06:30:25.278Z,12.59
2023-05-13T06:33:27.724Z,12.52
2023-05-13T06:36:32.099Z,12.41
2023-05-13T06:39:37.769Z,12.62
2023-05-13T06:42:43.256Z,12.47
2023-05-13T06:45:50.606Z,12.52
2023-05-13T06:48:53.837Z,12.67
2023-05-13T06:55:18.358Z,12.47
2023-05-13T06:58:28.511Z,12.66
2023-05-13T07:01:43.735Z,12.35
2023-05-13T07:04:56.366Z,12.34
2023-05-13T07:08:06.964Z,12.45
2023-05-13T07:11:12.426Z,12.53
2023-05-13T07:14:16.373Z,12.52
2023-05-13T07:17:32.416Z,12.31
2023-05-13T07:24:05.839Z,12.75
2023-05-13T07:27:11.212Z,13.00
2023-05-13T07:33:48.668Z,13.16
2023-05-13T07:37:29.832Z,13.10
2023-05-13T07:40:32.298Z,13.07
2023-05-13T07:43:45.573Z,12.87
2023-05-13T07:46:49.262Z,13.02
2023-05-13T07:50:00.694Z,13.07
2023-05-13T07:53:03.409Z,13.03
2023-05-13T07:56:11.539Z,12.91
2023-05-13T07:59:14.122Z,13.00
2023-05-13T08:02:16.448Z,12.90
2023-05-13T08:05:18.851Z,12.86
2023-05-13T08:08:21.333Z,12.83
2023-05-13T08:11:23.654Z,12.68
2023-05-13T08:14:27.075Z,12.54
2023-05-13T08:17:29.707Z,12.55
2023-05-13T08:20:32.115Z,12.71
2023-05-13T08:23:44.803Z,12.64
2023-05-13T08:26:48.388Z,12.70
2023-05-13T08:29:51.543Z,12.63
2023-05-13T08:32:53.978Z,12.66
2023-05-13T08:35:56.934Z,12.73
2023-05-13T08:38:59.520Z,12.79
2023-05-13T08:42:03.900Z,12.87
2023-05-13T08:45:08.322Z,12.92
2023-05-13T08:48:11.390Z,12.90
2023-05-13T08:51:14.782Z,12.87
2023-05-13T08:54:17.759Z,12.93
2023-05-13T08:57:20.062Z,13.08
2023-05-13T09:00:23.767Z,13.31
2023-05-13T09:03:28.088Z,13.45
2023-05-13T09:06:30.371Z,13.38
2023-05-13T09:09:33.670Z,13.40
2023-05-13T09:12:51.874Z,13.77
2023-05-13T09:15:54.400Z,13.97
2023-05-13T09:18:59.167Z,14.10
2023-05-13T09:22:01.991Z,14.20
2023-05-13T09:25:05.010Z,14.41
2023-05-13T09:28:08.762Z,14.61
2023-05-13T09:31:11.364Z,14.59
2023-05-13T09:34:13.865Z,14.64
2023-05-13T09:37:18.718Z,14.70
2023-05-13T09:40:21.299Z,14.71
2023-05-13T09:43:25.758Z,14.79
2023-05-13T09:46:28.091Z,14.76
2023-05-13T09:49:31.762Z,14.66
2023-05-13T09:52:35.851Z,14.74
2023-05-13T09:55:38.136Z,14.77
2023-05-13T09:58:40.392Z,14.66
2023-05-13T10:01:42.922Z,14.71
2023-05-13T10:04:45.379Z,14.54
2023-05-13T10:07:47.707Z,14.55
2023-05-13T10:10:50.732Z,14.70
2023-05-13T10:13:57.318Z,14.90
2023-05-13T10:16:59.995Z,14.93
2023-05-13T10:20:02.995Z,14.93
2023-05-13T10:23:05.653Z,14.87
2023-05-13T10:26:08.449Z,15.02
2023-05-13T10:29:11.540Z,14.97
2023-05-13T10:32:14.526Z,14.93
2023-05-13T10:35:17.791Z,15.09
2023-05-13T10:38:48.410Z,15.13
2023-05-13T10:42:08.947Z,15.15
2023-05-13T10:45:11.261Z,15.11
2023-05-13T10:48:13.988Z,15.38
2023-05-13T10:51:18.068Z,15.61
2023-05-13T10:54:22.787Z,15.71
2023-05-13T10:57:37.931Z,15.76
2023-05-13T11:00:44.772Z,15.55
2023-05-13T11:03:53.031Z,15.39
2023-05-13T11:06:56.112Z,15.17
2023-05-13T11:09:59.734Z,14.90
2023-05-13T11:13:15.311Z,14.82
2023-05-13T11:16:18.271Z,14.74
2023-05-13T11:19:27.350Z,14.76
2023-05-13T11:22:30.133Z,14.61
2023-05-13T11:25:32.565Z,14.60
2023-05-13T11:28:54.357Z,14.68
2023-05-13T11:32:00.338Z,14.59
2023-05-13T11:35:04.283Z,14.57
2023-05-13T11:38:06.674Z,14.40
2023-05-13T11:41:09.337Z,14.50
2023-05-13T11:44:13.390Z,14.47
2023-05-13T11:47:25.920Z,14.55
2023-05-13T11:50:30.774Z,14.53
2023-05-13T11:53:33.197Z,14.56
2023-05-13T11:56:35.559Z,14.68
2023-05-13T11:59:47.563Z,14.90
2023-05-13T12:02:50.887Z,15.18
2023-05-13T12:06:04.015Z,15.56
2023-05-13T12:09:07.159Z,15.39
2023-05-13T12:12:10.141Z,15.44
2023-05-13T12:15:22.228Z,15.43
2023-05-13T12:18:25.270Z,15.30
2023-05-13T12:21:32.133Z,15.25
2023-05-13T12:24:34.693Z,15.27
2023-05-13T12:27:37.104Z,14.99
2023-05-13T12:30:41.758Z,15.14
2023-05-13T12:33:46.888Z,15.16
2023-05-13T12:36:49.528Z,15.08
2023-05-13T12:40:09.635Z,15.20
2023-05-13T12:43:13.253Z,15.22
2023-05-13T12:46:15.587Z,15.14
2023-05-13T12:49:17.929Z,15.19
2023-05-13T12:52:20.693Z,15.30
2023-05-13T12:55:23.245Z,15.25
2023-05-13T12:58:25.829Z,15.42
2023-05-13T13:01:28.184Z,15.51
2023-05-13T13:04:30.915Z,15.55
2023-05-13T13:07:35.863Z,15.70
2023-05-13T13:10:38.183Z,15.67
2023-05-13T13:13:40.470Z,15.71
2023-05-13T13:16:42.878Z,15.64
2023-05-13T13:19:45.146Z,15.72
2023-05-13T13:22:47.448Z,15.63
2023-05-13T13:25:49.822Z,15.49
2023-05-13T13:28:52.231Z,15.57
2023-05-13T13:31:54.527Z,15.67
2023-05-13T13:34:58.385Z,15.64
2023-05-13T13:38:01.210Z,15.54
2023-05-13T13:41:03.501Z,15.62
2023-05-13T13:44:06.190Z,15.59
2023-05-13T13:47:09.604Z,15.57
2023-05-13T13:50:11.986Z,15.68
2023-05-13T13:53:14.251Z,15.64
2023-05-13T13:56:16.551Z,15.70
2023-05-13T13:59:19.443Z,15.62
2023-05-13T14:02:22.054Z,15.64
2023-05-13T14:05:24.419Z,15.67
2023-05-13T14:08:27.064Z,15.59
2023-05-13T14:11:29.514Z,15.66
2023-05-13T14:14:32.102Z,15.66
2023-05-13T14:17:34.464Z,15.63
2023-05-13T14:20:36.784Z,15.71
2023-05-13T14:23:41.882Z,15.60
2023-05-13T14:26:44.204Z,15.54
2023-05-13T14:29:47.806Z,15.56
2023-05-13T14:32:52.821Z,15.53
2023-05-13T14:35:55.500Z,15.57
2023-05-13T14:38:57.787Z,15.54
2023-05-13T14:42:00.856Z,15.39
2023-05-13T14:45:03.345Z,15.30
2023-05-13T14:48:06.072Z,15.35
2023-05-13T14:51:08.765Z,15.50
2023-05-13T14:54:11.170Z,15.49
2023-05-13T14:57:13.540Z,15.35
2023-05-13T15:00:16.238Z,15.31
2023-05-13T15:03:18.678Z,15.31
2023-05-13T15:06:21.025Z,15.43
2023-05-13T15:09:23.348Z,15.28
2023-05-13T15:12:26.368Z,15.21
2023-05-13T15:15:28.695Z,15.10
2023-05-13T15:18:31.638Z,15.18
2023-05-13T15:21:33.979Z,15.15
2023-05-13T15:24:37.764Z,15.20
2023-05-13T15:27:40.088Z,15.23
2023-05-13T15:30:42.672Z,15.12
2023-05-13T15:33:45.357Z,15.24
2023-05-13T15:36:47.782Z,15.22
2023-05-13T15:39:50.063Z,15.29
2023-05-13T15:42:52.296Z,15.27
2023-05-13T15:45:55.063Z,15.35
2023-05-13T15:48:57.509Z,15.25
2023-05-13T15:52:00.559Z,15.23
2023-05-13T15:55:03.352Z,15.24
2023-05-13T15:58:06.037Z,15.28
2023-05-13T16:01:08.344Z,15.20
2023-05-13T16:04:10.624Z,15.26
2023-05-13T16:07:12.950Z,15.20
2023-05-13T16:10:15.575Z,15.18
2023-05-13T16:13:18.394Z,15.17
2023-05-13T16:16:21.507Z,15.26
2023-05-13T16:19:24.265Z,15.29
2023-05-13T16:22:38.118Z,15.17
2023-05-13T16:25:41.858Z,15.11
2023-05-13T16:28:44.165Z,15.07
2023-05-13T16:31:46.602Z,14.95
2023-05-13T16:34:49.042Z,15.11
2023-05-13T16:37:51.432Z,15.08
2023-05-13T16:40:53.775Z,15.07
2023-05-13T16:43:56.056Z,15.12
2023-05-13T16:46:58.395Z,15.02
2023-05-13T16:50:00.679Z,15.01
2023-05-13T16:53:02.937Z,15.05
2023-05-13T16:56:05.685Z,15.12
2023-05-13T16:59:25.124Z,14.97
2023-05-13T17:02:27.452Z,15.00
2023-05-13T17:05:30.935Z,14.96
2023-05-13T17:08:33.263Z,14.98
2023-05-13T17:11:36.043Z,14.90
2023-05-13T17:14:38.313Z,14.96
2023-05-13T17:17:40.778Z,14.98
2023-05-13T17:20:44.257Z,14.99
2023-05-13T17:23:46.675Z,14.99
2023-05-13T17:26:49.822Z,14.91
2023-05-13T17:29:52.065Z,14.98
2023-05-13T17:32:54.428Z,14.97
2023-05-13T17:35:56.806Z,14.87
2023-05-13T17:38:59.232Z,14.82
2023-05-13T17:42:01.623Z,14.70
2023-05-13T17:45:04.406Z,14.61
2023-05-13T17:48:06.963Z,14.62
2023-05-13T17:51:09.375Z,14.60
2023-05-13T17:54:11.795Z,14.55
2023-05-13T17:57:15.834Z,14.57
2023-05-13T18:00:18.365Z,14.55
2023-05-13T18:03:21.856Z,14.51
2023-05-13T18:06:24.157Z,14.50
2023-05-13T18:09:26.409Z,14.55
2023-05-13T18:12:29.257Z,14.67
2023-05-13T18:15:31.596Z,14.61
2023-05-13T18:18:33.887Z,14.65
2023-05-13T18:21:36.101Z,14.56
2023-05-13T18:24:38.900Z,14.42
2023-05-13T18:27:41.256Z,14.29
2023-05-13T18:30:43.632Z,14.29
2023-05-13T18:33:45.926Z,14.25
2023-05-13T18:36:48.883Z,14.19
2023-05-13T18:39:52.206Z,14.21
2023-05-13T18:42:54.501Z,14.25
2023-05-13T18:45:57.895Z,14.24
2023-05-13T18:49:00.913Z,14.20
2023-05-13T18:52:03.245Z,14.24
2023-05-13T18:55:06.029Z,14.27
2023-05-13T18:58:08.299Z,14.27
2023-05-13T19:01:10.713Z,14.19
2023-05-13T19:04:15.293Z,14.17
2023-05-13T19:07:17.680Z,14.11
2023-05-13T19:10:20.272Z,14.18
2023-05-13T19:13:22.899Z,14.19
2023-05-13T19:16:26.342Z,14.12
2023-05-13T19:19:29.057Z,14.13
2023-05-13T19:22:31.266Z,14.15
2023-05-13T19:25:33.582Z,14.13
2023-05-13T19:28:37.252Z,14.19
2023-05-13T19:31:40.007Z,14.14
2023-05-13T19:34:42.542Z,14.21
2023-05-13T19:37:44.884Z,14.15
2023-05-13T19:40:48.013Z,14.15
2023-05-13T19:43:50.339Z,14.04
2023-05-13T19:46:55.091Z,13.97
2023-05-13T19:49:57.398Z,13.92
2023-05-13T19:52:59.873Z,13.77
2023-05-13T19:56:02.232Z,13.81
2023-05-13T19:59:04.862Z,13.80
2023-05-13T20:02:07.812Z,13.86
2023-05-13T20:05:10.588Z,13.95
2023-05-13T20:08:13.198Z,13.82
2023-05-13T20:11:15.467Z,13.63
2023-05-13T20:14:22.930Z,13.63
2023-05-13T20:17:25.936Z,13.58
2023-05-13T20:20:28.425Z,13.65
2023-05-13T20:23:32.278Z,13.56
2023-05-13T20:26:35.725Z,13.53
2023-05-13T20:29:43.556Z,13.53
2023-05-13T20:32:45.939Z,13.48
2023-05-13T20:35:48.346Z,13.46
2023-05-13T20:38:50.604Z,13.41
2023-05-13T20:41:53.441Z,13.23
2023-05-13T20:44:56.029Z,13.11
2023-05-13T20:47:59.367Z,13.22
2023-05-13T20:51:04.509Z,13.24
2023-05-13T20:54:13.379Z,13.10
2023-05-13T20:57:15.854Z,13.23
2023-05-13T21:00:18.654Z,13.33
2023-05-13T21:03:21.225Z,13.28
2023-05-13T21:06:24.361Z,13.12
2023-05-13T21:09:26.571Z,13.28
2023-05-13T21:12:28.834Z,13.26
2023-05-13T21:15:31.143Z,13.27
2023-05-13T21:18:34.233Z,13.27
2023-05-13T21:21:37.007Z,13.22
2023-05-13T21:24:39.278Z,13.25
2023-05-13T21:27:41.538Z,13.07
2023-05-13T21:30:43.944Z,13.17
2023-05-13T21:33:46.257Z,13.13
2023-05-13T21:36:48.539Z,13.14
2023-05-13T21:39:50.782Z,12.98
2023-05-13T21:42:53.037Z,12.97
2023-05-13T21:45:55.333Z,12.95
2023-05-13T21:48:59.720Z,13.02
2023-05-13T21:52:02.394Z,13.01
2023-05-13T21:55:05.017Z,13.00
2023-05-13T21:58:07.374Z,13.09
2023-05-13T22:01:09.692Z,13.15
2023-05-13T22:04:11.944Z,13.24
2023-05-13T22:07:14.491Z,13.33
2023-05-13T22:10:16.742Z,13.32
2023-05-13T22:13:21.500Z,13.21
2023-05-13T22:16:23.859Z,13.31
2023-05-13T22:19:29.096Z,13.28
2023-05-13T22:22:31.450Z,13.22
2023-05-13T22:25:33.790Z,13.21
2023-05-13T22:28:36.059Z,13.25
2023-05-13T22:31:38.432Z,13.11
2023-05-13T22:34:40.784Z,13.07
2023-05-13T22:37:43.069Z,12.92
2023-05-13T22:40:45.362Z,12.87
2023-05-13T22:43:47.660Z,12.98
2023-05-13T22:46:50.158Z,12.97
2023-05-13T22:49:52.494Z,13.09
2023-05-13T22:52:54.791Z,13.04
2023-05-13T22:55:57.084Z,13.19
2023-05-13T22:58:59.372Z,13.23
2023-05-13T23:02:01.641Z,13.14
2023-05-13T23:05:04.314Z,13.26
2023-05-13T23:08:06.609Z,13.30
2023-05-13T23:11:08.912Z,13.23
2023-05-13T23:14:11.169Z,13.33
2023-05-13T23:17:13.423Z,13.37
2023-05-13T23:20:16.637Z,13.39
2023-05-13T23:23:20.058Z,13.36
2023-05-13T23:26:22.438Z,13.41
2023-05-13T23:29:27.702Z,13.44
2023-05-13T23:32:30.139Z,13.52
2023-05-13T23:35:32.528Z,13.51
2023-05-13T23:38:34.773Z,13.50
2023-05-13T23:41:37.509Z,13.46
2023-05-13T23:44:39.857Z,13.46
2023-05-13T23:47:42.403Z,13.48
2023-05-13T23:50:44.817Z,13.44
2023-05-13T23:53:47.187Z,13.30
2023-05-13T23:56:49.925Z,13.35
2023-05-13T23:59:52.221Z,13.26
